sensor_id;sensor_type;location;lat;lon;timestamp;P1;durP1;ratioP1;P2;durP2;ratioP2
11827;SDS011;5971;49.646;8.568;2023-09-30T00:02:56;7.50;;;2.67;;
11827;SDS011;5971;49.646;8.568;2023-09-30T00:05:58;5.95;;;3.15;;
11827;SDS011;5971;49.646;8.568;2023-09-30T00:08:59;6.80;;;3.17;;
11827;SDS011;5971;49.646;8.568;2023-09-30T00:12:00;6.05;;;3.60;;
11827;SDS011;5971;49.646;8.568;2023-09-30T00:15:02;6.30;;;2.97;;
11827;SDS011;5971;49.646;8.568;2023-09-30T00:18:05;6.72;;;2.83;;
11827;SDS011;5971;49.646;8.568;2023-09-30T00:21:06;7.70;;;3.17;;
11827;SDS011;5971;49.646;8.568;2023-09-30T00:24:08;6.32;;;3.15;;
11827;SDS011;5971;49.646;8.568;2023-09-30T00:27:10;6.18;;;3.70;;
11827;SDS011;5971;49.646;8.568;2023-09-30T00:30:11;5.85;;;3.10;;
11827;SDS011;5971;49.646;8.568;2023-09-30T00:33:13;6.10;;;2.92;;
11827;SDS011;5971;49.646;8.568;2023-09-30T00:36:14;6.90;;;3.10;;
11827;SDS011;5971;49.646;8.568;2023-09-30T00:39:16;11.07;;;3.60;;
11827;SDS011;5971;49.646;8.568;2023-09-30T00:42:17;7.40;;;3.00;;
11827;SDS011;5971;49.646;8.568;2023-09-30T00:45:19;6.90;;;3.17;;
11827;SDS011;5971;49.646;8.568;2023-09-30T00:48:21;6.13;;;2.95;;
11827;SDS011;5971;49.646;8.568;2023-09-30T00:51:22;7.93;;;3.90;;
11827;SDS011;5971;49.646;8.568;2023-09-30T00:54:24;6.13;;;3.80;;
11827;SDS011;5971;49.646;8.568;2023-09-30T00:57:26;6.60;;;2.72;;
11827;SDS011;5971;49.646;8.568;2023-09-30T01:00:29;5.70;;;3.30;;
11827;SDS011;5971;49.646;8.568;2023-09-30T01:03:30;5.50;;;2.88;;
11827;SDS011;5971;49.646;8.568;2023-09-30T01:06:32;4.82;;;2.65;;
11827;SDS011;5971;49.646;8.568;2023-09-30T01:09:34;7.75;;;3.22;;
11827;SDS011;5971;49.646;8.568;2023-09-30T01:12:35;6.30;;;2.85;;
11827;SDS011;5971;49.646;8.568;2023-09-30T01:15:37;6.82;;;3.33;;
11827;SDS011;5971;49.646;8.568;2023-09-30T01:18:39;7.55;;;4.10;;
11827;SDS011;5971;49.646;8.568;2023-09-30T01:21:41;6.40;;;2.70;;
11827;SDS011;5971;49.646;8.568;2023-09-30T01:24:42;8.05;;;3.45;;
11827;SDS011;5971;49.646;8.568;2023-09-30T01:27:44;7.13;;;3.20;;
11827;SDS011;5971;49.646;8.568;2023-09-30T01:30:45;7.03;;;3.90;;
11827;SDS011;5971;49.646;8.568;2023-09-30T01:33:47;7.75;;;3.10;;
11827;SDS011;5971;49.646;8.568;2023-09-30T01:36:49;5.97;;;3.85;;
11827;SDS011;5971;49.646;8.568;2023-09-30T01:39:50;6.78;;;3.63;;
11827;SDS011;5971;49.646;8.568;2023-09-30T01:42:56;7.13;;;3.40;;
11827;SDS011;5971;49.646;8.568;2023-09-30T01:45:57;6.15;;;3.42;;
11827;SDS011;5971;49.646;8.568;2023-09-30T01:48:59;6.85;;;3.15;;
11827;SDS011;5971;49.646;8.568;2023-09-30T01:52:00;7.00;;;2.85;;
11827;SDS011;5971;49.646;8.568;2023-09-30T01:55:02;7.30;;;3.35;;
11827;SDS011;5971;49.646;8.568;2023-09-30T01:58:03;7.47;;;5.13;;
11827;SDS011;5971;49.646;8.568;2023-09-30T02:01:05;6.03;;;3.05;;
11827;SDS011;5971;49.646;8.568;2023-09-30T02:04:06;6.35;;;3.22;;
11827;SDS011;5971;49.646;8.568;2023-09-30T02:07:08;8.00;;;2.75;;
11827;SDS011;5971;49.646;8.568;2023-09-30T02:10:09;7.88;;;3.88;;
11827;SDS011;5971;49.646;8.568;2023-09-30T02:13:11;6.32;;;2.92;;
11827;SDS011;5971;49.646;8.568;2023-09-30T02:16:13;5.43;;;3.05;;
11827;SDS011;5971;49.646;8.568;2023-09-30T02:19:17;7.63;;;4.00;;
11827;SDS011;5971;49.646;8.568;2023-09-30T02:22:18;5.55;;;3.13;;
11827;SDS011;5971;49.646;8.568;2023-09-30T02:25:20;7.70;;;3.78;;
11827;SDS011;5971;49.646;8.568;2023-09-30T02:28:21;6.50;;;3.75;;
11827;SDS011;5971;49.646;8.568;2023-09-30T02:31:22;8.50;;;3.30;;
11827;SDS011;5971;49.646;8.568;2023-09-30T02:34:25;5.70;;;3.33;;
11827;SDS011;5971;49.646;8.568;2023-09-30T02:37:26;6.75;;;3.33;;
11827;SDS011;5971;49.646;8.568;2023-09-30T02:40:27;6.30;;;4.30;;
11827;SDS011;5971;49.646;8.568;2023-09-30T02:43:29;7.03;;;3.47;;
11827;SDS011;5971;49.646;8.568;2023-09-30T02:46:30;8.38;;;3.67;;
11827;SDS011;5971;49.646;8.568;2023-09-30T02:49:35;7.50;;;3.35;;
11827;SDS011;5971;49.646;8.568;2023-09-30T02:52:36;6.35;;;3.92;;
11827;SDS011;5971;49.646;8.568;2023-09-30T02:55:38;6.60;;;3.45;;
11827;SDS011;5971;49.646;8.568;2023-09-30T02:58:39;6.05;;;3.55;;
11827;SDS011;5971;49.646;8.568;2023-09-30T03:01:41;6.63;;;3.50;;
11827;SDS011;5971;49.646;8.568;2023-09-30T03:04:43;7.70;;;3.75;;
11827;SDS011;5971;49.646;8.568;2023-09-30T03:07:45;9.98;;;4.57;;
11827;SDS011;5971;49.646;8.568;2023-09-30T03:10:46;8.40;;;4.55;;
11827;SDS011;5971;49.646;8.568;2023-09-30T03:13:48;9.80;;;4.38;;
11827;SDS011;5971;49.646;8.568;2023-09-30T03:16:51;8.88;;;4.28;;
11827;SDS011;5971;49.646;8.568;2023-09-30T03:19:53;7.93;;;4.05;;
11827;SDS011;5971;49.646;8.568;2023-09-30T03:22:56;9.30;;;4.90;;
11827;SDS011;5971;49.646;8.568;2023-09-30T03:25:57;9.00;;;4.50;;
11827;SDS011;5971;49.646;8.568;2023-09-30T03:28:59;9.07;;;4.68;;
11827;SDS011;5971;49.646;8.568;2023-09-30T03:32:00;9.73;;;4.63;;
11827;SDS011;5971;49.646;8.568;2023-09-30T03:35:02;9.50;;;5.18;;
11827;SDS011;5971;49.646;8.568;2023-09-30T03:38:03;9.50;;;4.72;;
11827;SDS011;5971;49.646;8.568;2023-09-30T03:41:06;9.10;;;5.47;;
11827;SDS011;5971;49.646;8.568;2023-09-30T03:44:10;9.05;;;4.43;;
11827;SDS011;5971;49.646;8.568;2023-09-30T03:47:11;9.18;;;5.03;;
11827;SDS011;5971;49.646;8.568;2023-09-30T03:50:12;8.90;;;4.97;;
11827;SDS011;5971;49.646;8.568;2023-09-30T03:53:16;8.60;;;4.65;;
11827;SDS011;5971;49.646;8.568;2023-09-30T03:56:17;12.25;;;6.03;;
11827;SDS011;5971;49.646;8.568;2023-09-30T03:59:19;12.85;;;5.07;;
11827;SDS011;5971;49.646;8.568;2023-09-30T04:02:20;10.32;;;6.40;;
11827;SDS011;5971;49.646;8.568;2023-09-30T04:05:22;10.35;;;4.93;;
11827;SDS011;5971;49.646;8.568;2023-09-30T04:08:29;9.70;;;5.90;;
11827;SDS011;5971;49.646;8.568;2023-09-30T04:11:33;11.73;;;5.90;;
11827;SDS011;5971;49.646;8.568;2023-09-30T04:14:34;9.55;;;6.00;;
11827;SDS011;5971;49.646;8.568;2023-09-30T04:17:35;9.52;;;5.50;;
11827;SDS011;5971;49.646;8.568;2023-09-30T04:20:38;9.90;;;5.75;;
11827;SDS011;5971;49.646;8.568;2023-09-30T04:23:41;11.02;;;4.63;;
11827;SDS011;5971;49.646;8.568;2023-09-30T04:26:42;9.55;;;5.03;;
11827;SDS011;5971;49.646;8.568;2023-09-30T04:29:44;11.18;;;6.03;;
11827;SDS011;5971;49.646;8.568;2023-09-30T04:32:45;8.18;;;4.90;;
11827;SDS011;5971;49.646;8.568;2023-09-30T04:35:47;9.27;;;5.30;;
11827;SDS011;5971;49.646;8.568;2023-09-30T04:38:48;9.65;;;5.00;;
11827;SDS011;5971;49.646;8.568;2023-09-30T04:41:49;9.88;;;5.75;;
11827;SDS011;5971;49.646;8.568;2023-09-30T04:44:52;10.32;;;5.47;;
11827;SDS011;5971;49.646;8.568;2023-09-30T04:47:53;9.73;;;4.47;;
11827;SDS011;5971;49.646;8.568;2023-09-30T04:50:57;7.72;;;4.45;;
11827;SDS011;5971;49.646;8.568;2023-09-30T04:53:59;8.70;;;5.00;;
11827;SDS011;5971;49.646;8.568;2023-09-30T04:57:01;10.18;;;4.45;;
11827;SDS011;5971;49.646;8.568;2023-09-30T05:00:03;8.13;;;4.47;;
11827;SDS011;5971;49.646;8.568;2023-09-30T05:03:12;9.00;;;5.05;;
11827;SDS011;5971;49.646;8.568;2023-09-30T05:06:13;8.25;;;4.32;;
11827;SDS011;5971;49.646;8.568;2023-09-30T05:09:15;10.75;;;4.85;;
11827;SDS011;5971;49.646;8.568;2023-09-30T05:12:16;8.68;;;4.38;;
11827;SDS011;5971;49.646;8.568;2023-09-30T05:15:18;9.80;;;4.30;;
11827;SDS011;5971;49.646;8.568;2023-09-30T05:18:20;9.30;;;4.00;;
11827;SDS011;5971;49.646;8.568;2023-09-30T05:21:22;9.30;;;5.53;;
11827;SDS011;5971;49.646;8.568;2023-09-30T05:24:23;9.20;;;4.18;;
11827;SDS011;5971;49.646;8.568;2023-09-30T05:27:25;10.20;;;5.10;;
11827;SDS011;5971;49.646;8.568;2023-09-30T05:30:26;10.52;;;4.07;;
11827;SDS011;5971;49.646;8.568;2023-09-30T05:33:28;10.40;;;4.60;;
11827;SDS011;5971;49.646;8.568;2023-09-30T05:36:29;7.50;;;4.55;;
11827;SDS011;5971;49.646;8.568;2023-09-30T05:39:31;13.25;;;4.50;;
11827;SDS011;5971;49.646;8.568;2023-09-30T05:42:33;8.88;;;4.65;;
11827;SDS011;5971;49.646;8.568;2023-09-30T05:45:35;8.77;;;4.25;;
11827;SDS011;5971;49.646;8.568;2023-09-30T05:48:36;8.32;;;4.40;;
11827;SDS011;5971;49.646;8.568;2023-09-30T05:51:38;11.55;;;4.55;;
11827;SDS011;5971;49.646;8.568;2023-09-30T05:54:39;10.68;;;4.82;;
11827;SDS011;5971;49.646;8.568;2023-09-30T05:57:41;9.38;;;4.00;;
11827;SDS011;5971;49.646;8.568;2023-09-30T06:00:46;7.18;;;3.97;;
11827;SDS011;5971;49.646;8.568;2023-09-30T06:03:47;10.65;;;5.00;;
11827;SDS011;5971;49.646;8.568;2023-09-30T06:06:48;8.85;;;3.92;;
11827;SDS011;5971;49.646;8.568;2023-09-30T06:09:50;10.30;;;5.05;;
11827;SDS011;5971;49.646;8.568;2023-09-30T06:12:52;10.13;;;4.78;;
11827;SDS011;5971;49.646;8.568;2023-09-30T06:15:57;7.88;;;4.25;;
11827;SDS011;5971;49.646;8.568;2023-09-30T06:18:59;13.38;;;5.20;;
11827;SDS011;5971;49.646;8.568;2023-09-30T06:22:00;8.38;;;4.40;;
11827;SDS011;5971;49.646;8.568;2023-09-30T06:25:05;9.02;;;5.30;;
11827;SDS011;5971;49.646;8.568;2023-09-30T06:28:06;10.73;;;4.38;;
11827;SDS011;5971;49.646;8.568;2023-09-30T06:31:09;8.52;;;4.30;;
11827;SDS011;5971;49.646;8.568;2023-09-30T06:34:10;8.68;;;4.65;;
11827;SDS011;5971;49.646;8.568;2023-09-30T06:37:12;8.18;;;4.13;;
11827;SDS011;5971;49.646;8.568;2023-09-30T06:40:13;10.00;;;4.97;;
11827;SDS011;5971;49.646;8.568;2023-09-30T06:43:15;10.23;;;4.55;;
11827;SDS011;5971;49.646;8.568;2023-09-30T06:46:16;10.25;;;4.57;;
11827;SDS011;5971;49.646;8.568;2023-09-30T06:49:18;8.95;;;4.20;;
11827;SDS011;5971;49.646;8.568;2023-09-30T06:52:19;9.38;;;3.80;;
11827;SDS011;5971;49.646;8.568;2023-09-30T06:55:21;7.90;;;3.63;;
11827;SDS011;5971;49.646;8.568;2023-09-30T06:58:22;8.05;;;3.50;;
11827;SDS011;5971;49.646;8.568;2023-09-30T07:01:24;8.70;;;3.60;;
11827;SDS011;5971;49.646;8.568;2023-09-30T07:04:25;9.48;;;3.92;;
11827;SDS011;5971;49.646;8.568;2023-09-30T07:07:28;8.93;;;3.33;;
11827;SDS011;5971;49.646;8.568;2023-09-30T07:10:29;9.07;;;3.15;;
11827;SDS011;5971;49.646;8.568;2023-09-30T07:13:31;10.15;;;3.92;;
11827;SDS011;5971;49.646;8.568;2023-09-30T07:16:32;9.60;;;2.88;;
11827;SDS011;5971;49.646;8.568;2023-09-30T07:19:34;9.27;;;3.20;;
11827;SDS011;5971;49.646;8.568;2023-09-30T07:22:35;9.18;;;3.78;;
11827;SDS011;5971;49.646;8.568;2023-09-30T07:28:54;6.78;;;2.85;;
11827;SDS011;5971;49.646;8.568;2023-09-30T07:31:58;7.10;;;3.40;;
11827;SDS011;5971;49.646;8.568;2023-09-30T07:34:59;8.27;;;2.65;;
11827;SDS011;5971;49.646;8.568;2023-09-30T07:38:01;6.03;;;2.60;;
11827;SDS011;5971;49.646;8.568;2023-09-30T07:41:02;6.43;;;2.72;;
11827;SDS011;5971;49.646;8.568;2023-09-30T07:44:05;10.32;;;3.15;;
11827;SDS011;5971;49.646;8.568;2023-09-30T07:47:06;7.60;;;2.88;;
11827;SDS011;5971;49.646;8.568;2023-09-30T07:50:08;8.57;;;2.72;;
11827;SDS011;5971;49.646;8.568;2023-09-30T07:53:11;7.20;;;2.42;;
11827;SDS011;5971;49.646;8.568;2023-09-30T07:56:13;8.98;;;3.38;;
11827;SDS011;5971;49.646;8.568;2023-09-30T07:59:15;7.13;;;2.80;;
11827;SDS011;5971;49.646;8.568;2023-09-30T08:02:16;7.55;;;2.60;;
11827;SDS011;5971;49.646;8.568;2023-09-30T08:05:19;8.35;;;2.55;;
11827;SDS011;5971;49.646;8.568;2023-09-30T08:08:20;8.80;;;2.90;;
11827;SDS011;5971;49.646;8.568;2023-09-30T08:11:21;6.50;;;2.30;;
11827;SDS011;5971;49.646;8.568;2023-09-30T08:14:23;6.53;;;2.25;;
11827;SDS011;5971;49.646;8.568;2023-09-30T08:17:24;7.30;;;2.55;;
11827;SDS011;5971;49.646;8.568;2023-09-30T08:20:26;8.38;;;2.83;;
11827;SDS011;5971;49.646;8.568;2023-09-30T08:23:27;9.50;;;3.10;;
11827;SDS011;5971;49.646;8.568;2023-09-30T08:26:28;5.65;;;2.15;;
11827;SDS011;5971;49.646;8.568;2023-09-30T08:29:30;5.65;;;2.55;;
11827;SDS011;5971;49.646;8.568;2023-09-30T08:32:32;7.18;;;2.70;;
11827;SDS011;5971;49.646;8.568;2023-09-30T08:35:36;6.53;;;2.65;;
11827;SDS011;5971;49.646;8.568;2023-09-30T08:38:39;6.95;;;2.72;;
11827;SDS011;5971;49.646;8.568;2023-09-30T08:41:41;8.10;;;2.30;;
11827;SDS011;5971;49.646;8.568;2023-09-30T08:44:45;8.82;;;2.72;;
11827;SDS011;5971;49.646;8.568;2023-09-30T08:47:47;6.47;;;2.75;;
11827;SDS011;5971;49.646;8.568;2023-09-30T08:50:49;6.38;;;2.85;;
11827;SDS011;5971;49.646;8.568;2023-09-30T08:53:52;7.05;;;2.50;;
11827;SDS011;5971;49.646;8.568;2023-09-30T08:56:54;7.22;;;2.22;;
11827;SDS011;5971;49.646;8.568;2023-09-30T08:59:55;5.35;;;2.42;;
11827;SDS011;5971;49.646;8.568;2023-09-30T09:02:56;6.78;;;2.72;;
11827;SDS011;5971;49.646;8.568;2023-09-30T09:05:58;7.97;;;2.65;;
11827;SDS011;5971;49.646;8.568;2023-09-30T09:09:16;7.40;;;2.53;;
11827;SDS011;5971;49.646;8.568;2023-09-30T09:12:21;7.55;;;2.60;;
11827;SDS011;5971;49.646;8.568;2023-09-30T09:15:23;6.05;;;2.22;;
11827;SDS011;5971;49.646;8.568;2023-09-30T09:18:32;6.65;;;2.35;;
11827;SDS011;5971;49.646;8.568;2023-09-30T09:21:34;7.35;;;2.30;;
11827;SDS011;5971;49.646;8.568;2023-09-30T09:24:38;4.78;;;2.22;;
11827;SDS011;5971;49.646;8.568;2023-09-30T09:27:40;7.85;;;2.47;;
11827;SDS011;5971;49.646;8.568;2023-09-30T09:30:42;5.13;;;2.10;;
11827;SDS011;5971;49.646;8.568;2023-09-30T09:33:44;4.80;;;1.92;;
11827;SDS011;5971;49.646;8.568;2023-09-30T09:36:46;7.45;;;2.88;;
11827;SDS011;5971;49.646;8.568;2023-09-30T09:39:57;6.15;;;2.45;;
11827;SDS011;5971;49.646;8.568;2023-09-30T09:42:59;6.28;;;2.17;;
11827;SDS011;5971;49.646;8.568;2023-09-30T09:46:01;5.25;;;2.22;;
11827;SDS011;5971;49.646;8.568;2023-09-30T09:49:05;7.82;;;2.50;;
11827;SDS011;5971;49.646;8.568;2023-09-30T09:52:06;6.15;;;2.28;;
11827;SDS011;5971;49.646;8.568;2023-09-30T09:55:10;6.63;;;2.67;;
11827;SDS011;5971;49.646;8.568;2023-09-30T09:58:11;5.53;;;2.30;;
11827;SDS011;5971;49.646;8.568;2023-09-30T10:01:13;6.25;;;2.63;;
11827;SDS011;5971;49.646;8.568;2023-09-30T10:04:16;4.43;;;2.38;;
11827;SDS011;5971;49.646;8.568;2023-09-30T10:07:22;4.50;;;2.17;;
11827;SDS011;5971;49.646;8.568;2023-09-30T10:10:26;6.75;;;2.38;;
11827;SDS011;5971;49.646;8.568;2023-09-30T10:16:50;5.15;;;2.28;;
11827;SDS011;5971;49.646;8.568;2023-09-30T10:20:05;6.97;;;2.80;;
11827;SDS011;5971;49.646;8.568;2023-09-30T10:26:18;7.55;;;2.70;;
11827;SDS011;5971;49.646;8.568;2023-09-30T10:29:23;4.65;;;2.30;;
11827;SDS011;5971;49.646;8.568;2023-09-30T10:36:00;6.25;;;2.63;;
11827;SDS011;5971;49.646;8.568;2023-09-30T10:39:02;6.32;;;2.45;;
11827;SDS011;5971;49.646;8.568;2023-09-30T10:42:04;5.57;;;2.40;;
11827;SDS011;5971;49.646;8.568;2023-09-30T10:45:06;6.20;;;2.55;;
11827;SDS011;5971;49.646;8.568;2023-09-30T10:51:29;4.78;;;2.20;;
11827;SDS011;5971;49.646;8.568;2023-09-30T10:54:31;5.00;;;2.42;;
11827;SDS011;5971;49.646;8.568;2023-09-30T10:57:33;4.90;;;2.38;;
11827;SDS011;5971;49.646;8.568;2023-09-30T11:00:35;5.15;;;2.35;;
11827;SDS011;5971;49.646;8.568;2023-09-30T11:03:36;5.78;;;2.45;;
11827;SDS011;5971;49.646;8.568;2023-09-30T11:06:41;4.43;;;2.30;;
11827;SDS011;5971;49.646;8.568;2023-09-30T11:09:43;5.88;;;2.30;;
11827;SDS011;5971;49.646;8.568;2023-09-30T11:12:57;6.57;;;2.60;;
11827;SDS011;5971;49.646;8.568;2023-09-30T11:15:59;4.78;;;2.30;;
11827;SDS011;5971;49.646;8.568;2023-09-30T11:19:01;6.38;;;2.50;;
11827;SDS011;5971;49.646;8.568;2023-09-30T11:22:04;5.82;;;2.30;;
11827;SDS011;5971;49.646;8.568;2023-09-30T11:25:15;5.68;;;2.60;;
11827;SDS011;5971;49.646;8.568;2023-09-30T11:28:17;5.50;;;2.15;;
11827;SDS011;5971;49.646;8.568;2023-09-30T11:31:20;5.32;;;2.22;;
11827;SDS011;5971;49.646;8.568;2023-09-30T11:34:30;6.53;;;2.53;;
11827;SDS011;5971;49.646;8.568;2023-09-30T11:37:33;5.30;;;2.17;;
11827;SDS011;5971;49.646;8.568;2023-09-30T11:40:35;6.05;;;2.53;;
11827;SDS011;5971;49.646;8.568;2023-09-30T11:43:36;4.82;;;2.42;;
11827;SDS011;5971;49.646;8.568;2023-09-30T11:46:48;6.93;;;2.60;;
11827;SDS011;5971;49.646;8.568;2023-09-30T11:49:56;4.68;;;2.28;;
11827;SDS011;5971;49.646;8.568;2023-09-30T11:52:58;5.75;;;2.65;;
11827;SDS011;5971;49.646;8.568;2023-09-30T11:55:59;5.97;;;2.72;;
11827;SDS011;5971;49.646;8.568;2023-09-30T11:59:03;6.03;;;2.60;;
11827;SDS011;5971;49.646;8.568;2023-09-30T12:02:05;5.47;;;2.78;;
11827;SDS011;5971;49.646;8.568;2023-09-30T12:05:14;6.95;;;2.72;;
11827;SDS011;5971;49.646;8.568;2023-09-30T12:08:18;6.07;;;2.65;;
11827;SDS011;5971;49.646;8.568;2023-09-30T12:11:20;6.43;;;2.60;;
11827;SDS011;5971;49.646;8.568;2023-09-30T12:14:21;6.10;;;2.80;;
11827;SDS011;5971;49.646;8.568;2023-09-30T12:17:23;7.63;;;2.90;;
11827;SDS011;5971;49.646;8.568;2023-09-30T12:20:24;5.30;;;2.50;;
11827;SDS011;5971;49.646;8.568;2023-09-30T12:23:26;6.93;;;2.55;;
11827;SDS011;5971;49.646;8.568;2023-09-30T12:26:27;7.45;;;2.58;;
11827;SDS011;5971;49.646;8.568;2023-09-30T12:29:29;6.38;;;2.80;;
11827;SDS011;5971;49.646;8.568;2023-09-30T12:32:30;6.35;;;2.88;;
11827;SDS011;5971;49.646;8.568;2023-09-30T12:35:32;6.00;;;2.88;;
11827;SDS011;5971;49.646;8.568;2023-09-30T12:38:33;7.38;;;3.13;;
11827;SDS011;5971;49.646;8.568;2023-09-30T12:41:35;5.80;;;2.70;;
11827;SDS011;5971;49.646;8.568;2023-09-30T12:44:36;6.53;;;2.75;;
11827;SDS011;5971;49.646;8.568;2023-09-30T12:47:38;6.47;;;2.67;;
11827;SDS011;5971;49.646;8.568;2023-09-30T12:50:40;5.97;;;2.92;;
11827;SDS011;5971;49.646;8.568;2023-09-30T12:53:41;6.78;;;3.20;;
11827;SDS011;5971;49.646;8.568;2023-09-30T12:56:42;5.90;;;2.88;;
11827;SDS011;5971;49.646;8.568;2023-09-30T12:59:44;5.40;;;2.30;;
11827;SDS011;5971;49.646;8.568;2023-09-30T13:02:50;6.20;;;2.78;;
11827;SDS011;5971;49.646;8.568;2023-09-30T13:05:51;6.43;;;2.90;;
11827;SDS011;5971;49.646;8.568;2023-09-30T13:08:53;6.05;;;2.90;;
11827;SDS011;5971;49.646;8.568;2023-09-30T13:11:54;7.43;;;3.22;;
11827;SDS011;5971;49.646;8.568;2023-09-30T13:14:55;9.85;;;3.63;;
11827;SDS011;5971;49.646;8.568;2023-09-30T13:17:57;5.35;;;2.80;;
11827;SDS011;5971;49.646;8.568;2023-09-30T13:21:00;8.10;;;2.92;;
11827;SDS011;5971;49.646;8.568;2023-09-30T13:24:01;5.70;;;2.70;;
11827;SDS011;5971;49.646;8.568;2023-09-30T13:27:02;6.95;;;3.00;;
11827;SDS011;5971;49.646;8.568;2023-09-30T13:30:04;5.97;;;2.63;;
11827;SDS011;5971;49.646;8.568;2023-09-30T13:33:05;6.22;;;3.10;;
11827;SDS011;5971;49.646;8.568;2023-09-30T13:36:07;6.38;;;3.15;;
11827;SDS011;5971;49.646;8.568;2023-09-30T13:39:08;6.03;;;2.67;;
11827;SDS011;5971;49.646;8.568;2023-09-30T13:42:14;6.72;;;3.40;;
11827;SDS011;5971;49.646;8.568;2023-09-30T13:45:15;6.97;;;3.08;;
11827;SDS011;5971;49.646;8.568;2023-09-30T13:48:20;7.57;;;3.22;;
11827;SDS011;5971;49.646;8.568;2023-09-30T13:51:22;7.85;;;3.20;;
11827;SDS011;5971;49.646;8.568;2023-09-30T13:54:23;7.95;;;3.38;;
11827;SDS011;5971;49.646;8.568;2023-09-30T13:57:25;8.25;;;3.15;;
11827;SDS011;5971;49.646;8.568;2023-09-30T14:00:26;8.40;;;3.20;;
11827;SDS011;5971;49.646;8.568;2023-09-30T14:03:28;7.35;;;3.53;;
11827;SDS011;5971;49.646;8.568;2023-09-30T14:06:30;7.00;;;3.53;;
11827;SDS011;5971;49.646;8.568;2023-09-30T14:09:31;6.97;;;3.63;;
11827;SDS011;5971;49.646;8.568;2023-09-30T14:12:37;7.63;;;3.42;;
11827;SDS011;5971;49.646;8.568;2023-09-30T14:15:40;7.68;;;3.25;;
11827;SDS011;5971;49.646;8.568;2023-09-30T14:18:42;6.75;;;3.03;;
11827;SDS011;5971;49.646;8.568;2023-09-30T14:21:47;8.68;;;3.42;;
11827;SDS011;5971;49.646;8.568;2023-09-30T14:24:50;7.13;;;3.10;;
11827;SDS011;5971;49.646;8.568;2023-09-30T14:27:52;8.18;;;3.42;;
11827;SDS011;5971;49.646;8.568;2023-09-30T14:30:53;7.72;;;3.72;;
11827;SDS011;5971;49.646;8.568;2023-09-30T14:33:55;6.53;;;3.13;;
11827;SDS011;5971;49.646;8.568;2023-09-30T14:36:56;6.82;;;3.30;;
11827;SDS011;5971;49.646;8.568;2023-09-30T14:39:57;6.65;;;3.30;;
11827;SDS011;5971;49.646;8.568;2023-09-30T14:42:59;7.95;;;3.47;;
11827;SDS011;5971;49.646;8.568;2023-09-30T14:46:06;6.05;;;3.30;;
11827;SDS011;5971;49.646;8.568;2023-09-30T14:49:09;6.95;;;3.13;;
11827;SDS011;5971;49.646;8.568;2023-09-30T14:52:11;6.35;;;3.08;;
11827;SDS011;5971;49.646;8.568;2023-09-30T14:55:13;7.70;;;3.60;;
11827;SDS011;5971;49.646;8.568;2023-09-30T14:58:14;6.63;;;3.50;;
11827;SDS011;5971;49.646;8.568;2023-09-30T15:01:16;7.10;;;3.00;;
11827;SDS011;5971;49.646;8.568;2023-09-30T15:04:17;7.07;;;2.97;;
11827;SDS011;5971;49.646;8.568;2023-09-30T15:07:19;5.30;;;2.88;;
11827;SDS011;5971;49.646;8.568;2023-09-30T15:10:20;8.27;;;3.20;;
11827;SDS011;5971;49.646;8.568;2023-09-30T15:13:21;7.70;;;3.42;;
11827;SDS011;5971;49.646;8.568;2023-09-30T15:16:23;6.03;;;2.95;;
11827;SDS011;5971;49.646;8.568;2023-09-30T15:19:26;7.45;;;3.30;;
11827;SDS011;5971;49.646;8.568;2023-09-30T15:22:27;8.25;;;3.20;;
11827;SDS011;5971;49.646;8.568;2023-09-30T15:25:29;6.07;;;2.95;;
11827;SDS011;5971;49.646;8.568;2023-09-30T15:28:30;7.70;;;3.03;;
11827;SDS011;5971;49.646;8.568;2023-09-30T15:31:32;6.03;;;3.03;;
11827;SDS011;5971;49.646;8.568;2023-09-30T15:34:35;5.88;;;2.78;;
11827;SDS011;5971;49.646;8.568;2023-09-30T15:37:39;8.13;;;3.15;;
11827;SDS011;5971;49.646;8.568;2023-09-30T15:40:50;6.70;;;2.83;;
11827;SDS011;5971;49.646;8.568;2023-09-30T15:43:52;6.53;;;3.00;;
11827;SDS011;5971;49.646;8.568;2023-09-30T15:46:53;5.75;;;2.80;;
11827;SDS011;5971;49.646;8.568;2023-09-30T15:49:56;7.47;;;3.00;;
11827;SDS011;5971;49.646;8.568;2023-09-30T15:52:57;8.85;;;3.50;;
11827;SDS011;5971;49.646;8.568;2023-09-30T15:55:59;7.22;;;3.17;;
11827;SDS011;5971;49.646;8.568;2023-09-30T15:59:01;8.35;;;3.67;;
11827;SDS011;5971;49.646;8.568;2023-09-30T16:02:02;6.93;;;3.08;;
11827;SDS011;5971;49.646;8.568;2023-09-30T16:05:04;6.97;;;3.03;;
11827;SDS011;5971;49.646;8.568;2023-09-30T16:08:06;7.63;;;3.00;;
11827;SDS011;5971;49.646;8.568;2023-09-30T16:11:08;7.18;;;3.35;;
11827;SDS011;5971;49.646;8.568;2023-09-30T16:14:09;8.02;;;3.08;;
11827;SDS011;5971;49.646;8.568;2023-09-30T16:17:10;10.02;;;3.67;;
11827;SDS011;5971;49.646;8.568;2023-09-30T16:20:12;7.63;;;3.15;;
11827;SDS011;5971;49.646;8.568;2023-09-30T16:23:14;7.70;;;3.50;;
11827;SDS011;5971;49.646;8.568;2023-09-30T16:26:15;10.48;;;3.38;;
11827;SDS011;5971;49.646;8.568;2023-09-30T16:29:17;8.10;;;3.83;;
11827;SDS011;5971;49.646;8.568;2023-09-30T16:32:18;9.77;;;3.60;;
11827;SDS011;5971;49.646;8.568;2023-09-30T16:35:19;6.95;;;3.42;;
11827;SDS011;5971;49.646;8.568;2023-09-30T16:38:21;8.30;;;3.28;;
11827;SDS011;5971;49.646;8.568;2023-09-30T16:41:22;10.57;;;3.35;;
11827;SDS011;5971;49.646;8.568;2023-09-30T16:44:24;6.53;;;2.92;;
11827;SDS011;5971;49.646;8.568;2023-09-30T16:47:26;5.60;;;2.70;;
11827;SDS011;5971;49.646;8.568;2023-09-30T16:50:28;9.60;;;4.63;;
11827;SDS011;5971;49.646;8.568;2023-09-30T16:53:29;8.98;;;3.60;;
11827;SDS011;5971;49.646;8.568;2023-09-30T16:56:31;7.05;;;3.20;;
11827;SDS011;5971;49.646;8.568;2023-09-30T16:59:32;6.75;;;3.10;;
11827;SDS011;5971;49.646;8.568;2023-09-30T17:02:34;7.55;;;3.65;;
11827;SDS011;5971;49.646;8.568;2023-09-30T17:05:36;7.18;;;3.40;;
11827;SDS011;5971;49.646;8.568;2023-09-30T17:08:38;9.50;;;3.05;;
11827;SDS011;5971;49.646;8.568;2023-09-30T17:11:39;7.90;;;4.30;;
11827;SDS011;5971;49.646;8.568;2023-09-30T17:14:41;7.45;;;3.35;;
11827;SDS011;5971;49.646;8.568;2023-09-30T17:17:42;7.43;;;3.42;;
11827;SDS011;5971;49.646;8.568;2023-09-30T17:20:43;7.63;;;3.30;;
11827;SDS011;5971;49.646;8.568;2023-09-30T17:23:48;8.95;;;3.40;;
11827;SDS011;5971;49.646;8.568;2023-09-30T17:26:50;8.80;;;3.20;;
11827;SDS011;5971;49.646;8.568;2023-09-30T17:29:51;9.20;;;4.25;;
11827;SDS011;5971;49.646;8.568;2023-09-30T17:32:52;8.60;;;3.38;;
11827;SDS011;5971;49.646;8.568;2023-09-30T17:35:58;9.32;;;4.22;;
11827;SDS011;5971;49.646;8.568;2023-09-30T17:38:59;7.78;;;3.17;;
11827;SDS011;5971;49.646;8.568;2023-09-30T17:42:00;8.50;;;4.65;;
11827;SDS011;5971;49.646;8.568;2023-09-30T17:45:02;7.55;;;3.45;;
11827;SDS011;5971;49.646;8.568;2023-09-30T17:48:03;8.18;;;4.47;;
11827;SDS011;5971;49.646;8.568;2023-09-30T17:51:05;8.20;;;3.22;;
11827;SDS011;5971;49.646;8.568;2023-09-30T17:54:10;8.27;;;3.60;;
11827;SDS011;5971;49.646;8.568;2023-09-30T17:57:12;7.47;;;3.53;;
11827;SDS011;5971;49.646;8.568;2023-09-30T18:00:15;8.45;;;3.83;;
11827;SDS011;5971;49.646;8.568;2023-09-30T18:03:18;9.13;;;4.10;;
11827;SDS011;5971;49.646;8.568;2023-09-30T18:06:20;8.13;;;4.05;;
11827;SDS011;5971;49.646;8.568;2023-09-30T18:09:24;8.18;;;3.88;;
11827;SDS011;5971;49.646;8.568;2023-09-30T18:12:25;8.15;;;3.42;;
11827;SDS011;5971;49.646;8.568;2023-09-30T18:15:27;8.23;;;4.13;;
11827;SDS011;5971;49.646;8.568;2023-09-30T18:18:29;7.18;;;3.30;;
11827;SDS011;5971;49.646;8.568;2023-09-30T18:21:30;8.50;;;3.20;;
11827;SDS011;5971;49.646;8.568;2023-09-30T18:24:32;7.65;;;3.30;;
11827;SDS011;5971;49.646;8.568;2023-09-30T18:27:34;8.85;;;3.90;;
11827;SDS011;5971;49.646;8.568;2023-09-30T18:30:42;8.02;;;3.50;;
11827;SDS011;5971;49.646;8.568;2023-09-30T18:33:43;7.22;;;3.95;;
11827;SDS011;5971;49.646;8.568;2023-09-30T18:36:45;7.55;;;3.38;;
11827;SDS011;5971;49.646;8.568;2023-09-30T18:39:46;8.45;;;3.60;;
11827;SDS011;5971;49.646;8.568;2023-09-30T18:42:52;8.00;;;3.50;;
11827;SDS011;5971;49.646;8.568;2023-09-30T18:45:53;10.07;;;5.05;;
11827;SDS011;5971;49.646;8.568;2023-09-30T18:48:54;9.13;;;4.63;;
11827;SDS011;5971;49.646;8.568;2023-09-30T18:51:56;7.82;;;4.30;;